Time;durP1;ratioP1;P1;durP2;ratioP2;P2;SDS_P1;SDS_P2;PMS_P1;PMS_P2;Temp;Humidity;BMP_temperature;BMP_pressure;BME280_temperature;BME280_humidity;BME280_pressure;Samples;Min_cycle;Max_cycle;Signal;HPM_P1;HPM_P2
2023/05/10 00:00:04;;;;;;;2.77;2.57;;;;;;;20.72;57.10;96800.88;4957551;29;20222;-31
2023/05/10 00:02:31;;;;;;;2.60;2.40;;;;;;;20.74;57.03;96799.22;4956657;28;20228;-31
2023/05/10 00:04:58;;;;;;;3.07;2.63;;;;;;;20.75;56.59;96803.47;4957089;28;20239;-31
2023/05/10 00:07:25;;;;;;;2.60;2.40;;;;;;;20.75;57.00;96808.59;4958180;29;20303;-31
2023/05/10 00:09:51;;;;;;;2.97;2.50;;;;;;;20.29;57.14;96733.56;4957275;29;20304;-30
2023/05/10 00:12:18;;;;;;;4.07;2.53;;;;;;;20.74;57.07;96796.66;4949681;29;20239;-31
2023/05/10 00:14:44;;;;;;;2.50;2.30;;;;;;;20.74;57.18;96798.34;4956019;28;20228;-32
2023/05/10 00:17:11;;;;;;;2.97;2.77;;;;;;;20.74;57.05;96791.56;4956867;28;20226;-31
2023/05/10 00:19:38;;;;;;;2.53;2.33;;;;;;;20.74;57.11;96795.78;4956915;28;20275;-31
2023/05/10 00:22:04;;;;;;;2.50;2.30;;;;;;;20.74;56.91;96796.66;4957029;28;20232;-32
2023/05/10 00:24:31;;;;;;;2.50;2.30;;;;;;;20.70;57.39;96782.13;4971904;28;20631;-31
2023/05/10 00:26:57;;;;;;;2.40;2.20;;;;;;;20.74;57.43;96796.66;4956917;28;20204;-31
2023/05/10 00:29:24;;;;;;;2.87;2.67;;;;;;;20.75;57.11;96792.44;4957303;29;20295;-31
2023/05/10 00:31:50;;;;;;;2.60;2.40;;;;;;;20.75;57.01;96797.53;4956661;28;20260;-31
2023/05/10 00:34:17;;;;;;;2.60;2.40;;;;;;;20.74;57.08;96795.78;4952932;28;20710;-31
2023/05/10 00:36:44;;;;;;;2.50;2.30;;;;;;;20.75;56.50;96795.81;4955747;28;20216;-31
2023/05/10 00:39:11;;;;;;;2.77;2.57;;;;;;;20.74;57.10;96798.34;4953977;28;20695;-31
2023/05/10 00:41:37;;;;;;;2.43;2.23;;;;;;;20.75;57.47;96794.97;4957079;28;20307;-31
2023/05/10 00:44:04;;;;;;;2.60;2.40;;;;;;;20.75;57.02;96794.97;4956920;28;20239;-31
2023/05/10 00:46:30;;;;;;;2.13;2.00;;;;;;;20.74;57.02;96786.44;4956749;29;20211;-31
2023/05/10 00:48:57;;;;;;;2.50;2.30;;;;;;;20.75;57.12;96794.97;4955430;29;20614;-31
2023/05/10 00:51:24;;;;;;;2.57;2.37;;;;;;;20.74;57.26;96785.56;4954771;28;20210;-31
2023/05/10 00:53:50;;;;;;;2.60;2.40;;;;;;;20.73;56.70;96782.19;4952649;29;20228;-31
2023/05/10 00:56:17;;;;;;;2.60;2.40;;;;;;;20.74;57.04;96794.09;4955310;28;20211;-31
2023/05/10 00:58:43;;;;;;;2.40;2.20;;;;;;;20.75;56.92;96784.78;4954765;28;20236;-32
2023/05/10 01:01:10;;;;;;;2.37;2.17;;;;;;;20.74;57.12;96789.00;4953885;28;20750;-31
2023/05/10 01:03:37;;;;;;;2.87;2.37;;;;;;;20.74;57.21;96783.03;4954313;28;20210;-31
2023/05/10 01:06:04;;;;;;;2.60;2.40;;;;;;;20.75;56.97;96783.06;4937624;29;20216;-31
2023/05/10 01:08:30;;;;;;;2.60;2.27;;;;;;;20.74;56.94;96780.47;4956373;28;20671;-31
2023/05/10 01:10:57;;;;;;;2.50;2.30;;;;;;;20.72;56.98;96777.88;4956015;28;20208;-31
2023/05/10 01:13:34;;;;;;;2.33;2.13;;;;;;;20.72;56.82;96779.59;4939423;29;20306;-31
2023/05/10 01:16:04;;;;;;;2.97;2.67;;;;;;;20.70;57.08;96777.00;4955250;28;20212;-31
2023/05/10 01:18:31;;;;;;;2.50;2.30;;;;;;;20.70;56.98;96771.03;4924424;29;20200;-31
2023/05/10 01:21:20;;;;;;;2.90;2.20;;;;;;;20.74;56.99;96781.34;4935854;29;20247;-31
2023/05/10 01:24:11;;;;;;;2.70;2.50;;;;;;;20.74;56.85;96778.78;4958895;28;20251;-31
2023/05/10 01:27:09;;;;;;;2.53;2.33;;;;;;;20.75;56.98;96779.66;4951885;29;20220;-31
2023/05/10 01:29:57;;;;;;;2.53;2.33;;;;;;;20.74;57.19;96783.91;4949818;29;20638;-31
2023/05/10 01:33:00;;;;;;;2.77;2.20;;;;;;;20.74;56.95;96790.69;4959797;28;20227;-31
2023/05/10 01:35:32;;;;;;;2.50;2.30;;;;;;;20.74;57.05;96783.91;4961234;28;20223;-31
2023/05/10 01:38:15;;;;;;;2.70;2.50;;;;;;;20.74;56.84;96803.44;4956418;28;20212;-31
2023/05/10 01:40:44;;;;;;;2.20;2.00;;;;;;;20.73;56.96;96782.19;4955243;29;20311;-31
2023/05/10 01:43:14;;;;;;;2.50;2.30;;;;;;;20.73;57.17;96777.06;4955495;28;20257;-31
2023/05/10 01:45:47;;;;;;;2.80;2.40;;;;;;;20.70;57.23;96782.13;4935445;29;20205;-31
2023/05/10 01:48:14;;;;;;;2.50;2.30;;;;;;;20.67;57.11;96776.94;4939117;29;20211;-31
2023/05/10 01:50:43;;;;;;;2.40;2.20;;;;;;;20.67;57.09;96776.94;4953384;29;20589;-31
2023/05/10 01:53:10;;;;;;;2.50;2.30;;;;;;;20.73;57.07;96781.31;4953824;28;20234;-31
2023/05/10 01:55:46;;;;;;;2.50;2.17;;;;;;;20.73;57.30;96778.75;4955239;29;20287;-31
2023/05/10 01:58:25;;;;;;;2.33;2.00;;;;;;;20.73;57.03;96788.97;4955537;29;20208;-31
2023/05/10 02:00:51;;;;;;;2.60;2.20;;;;;;;20.41;57.10;96739.81;4955889;28;20635;-30
2023/05/10 02:03:20;;;;;;;2.80;2.50;;;;;;;20.73;57.10;96782.19;4953719;28;20227;-31
2023/05/10 02:05:48;;;;;;;2.67;2.20;;;;;;;20.73;57.03;96789.84;4943120;29;20211;-31
2023/05/10 02:08:14;;;;;;;3.17;2.27;;;;;;;20.72;56.69;96779.59;4959070;29;20204;-31
2023/05/10 02:10:41;;;;;;;2.37;2.17;;;;;;;20.68;57.04;96778.66;4958481;29;20200;-32
2023/05/10 02:13:07;;;;;;;2.40;2.20;;;;;;;20.73;56.90;96801.75;4927124;29;20219;-31
2023/05/10 02:15:34;;;;;;;2.20;2.00;;;;;;;20.73;57.21;96787.28;4958519;29;20311;-31
2023/05/10 02:18:01;;;;;;;2.40;2.20;;;;;;;20.72;57.15;96780.44;4960704;28;20214;-31
2023/05/10 02:20:27;;;;;;;2.10;2.00;;;;;;;20.72;57.04;96788.09;4959016;29;20204;-31
2023/05/10 02:22:55;;;;;;;2.00;1.90;;;;;;;20.72;57.05;96785.53;4958130;29;20251;-31
2023/05/10 02:25:21;;;;;;;2.23;2.03;;;;;;;20.72;57.05;96783.00;4958409;28;20663;-31
2023/05/10 02:27:48;;;;;;;2.13;2.00;;;;;;;20.72;57.35;96785.53;4956665;28;20224;-31
2023/05/10 02:30:15;;;;;;;2.60;2.40;;;;;;;20.69;57.15;96779.53;4941753;29;20223;-31
2023/05/10 02:32:42;;;;;;;2.00;1.90;;;;;;;20.72;57.09;96784.72;4956323;29;20290;-31
2023/05/10 02:35:09;;;;;;;2.40;2.20;;;;;;;20.68;57.50;96780.34;4941924;29;20341;-32
2023/05/10 02:37:36;;;;;;;2.30;2.10;;;;;;;20.51;57.14;96753.59;4941694;29;20234;-31
2023/05/10 02:40:04;;;;;;;2.20;2.10;;;;;;;20.72;57.08;96789.81;4958308;28;20663;-31
2023/05/10 02:42:34;;;;;;;2.30;2.10;;;;;;;20.72;57.26;96788.09;4956012;29;20228;-32
2023/05/10 02:45:03;;;;;;;2.47;2.27;;;;;;;20.72;57.15;96785.53;4958069;28;20239;-31
2023/05/10 02:47:29;;;;;;;2.47;2.27;;;;;;;20.72;56.79;96790.66;4953111;28;20298;-31
2023/05/10 02:49:56;;;;;;;2.30;2.10;;;;;;;20.70;57.15;96786.34;4962211;28;20216;-31
2023/05/10 02:52:27;;;;;;;2.23;2.10;;;;;;;20.68;57.06;96781.22;4959906;28;20388;-32
2023/05/10 02:55:00;;;;;;;2.23;2.10;;;;;;;20.73;57.03;96792.41;4941924;29;20216;-32
2023/05/10 02:57:28;;;;;;;2.27;2.07;;;;;;;20.73;56.91;96779.63;4957073;29;20204;-32
2023/05/10 02:59:55;;;;;;;2.13;2.00;;;;;;;20.73;56.99;96787.28;4956325;28;20287;-31
2023/05/10 03:02:22;;;;;;;2.40;2.20;;;;;;;20.73;57.39;96784.75;4958054;28;20220;-31
2023/05/10 03:04:48;;;;;;;2.10;2.00;;;;;;;20.73;56.45;96781.31;4957914;28;20255;-31
2023/05/10 03:07:15;;;;;;;2.57;2.20;;;;;;;20.70;57.22;96784.69;4957664;28;20205;-31
2023/05/10 03:09:42;;;;;;;1.90;1.80;;;;;;;20.70;56.88;96789.78;4944045;28;20621;-31
2023/05/10 03:12:50;;;;;;;2.23;2.03;;;;;;;20.73;57.08;96794.94;4957403;28;20235;-31
2023/05/10 03:15:37;;;;;;;2.10;2.00;;;;;;;20.74;57.01;96795.78;4948706;28;20255;-31
2023/05/10 03:18:13;;;;;;;2.23;2.07;;;;;;;20.73;57.18;96791.53;4960978;28;20219;-31
2023/05/10 03:20:43;;;;;;;2.20;2.10;;;;;;;20.72;57.17;96793.22;4947385;28;20271;-31
2023/05/10 03:23:25;;;;;;;2.20;2.00;;;;;;;20.73;57.24;96794.06;4959613;28;20248;-31
2023/05/10 03:25:51;;;;;;;2.07;1.97;;;;;;;20.72;56.96;96792.38;4956539;29;20192;-31
2023/05/10 03:28:18;;;;;;;2.17;1.97;;;;;;;20.70;57.27;96792.34;4954669;29;20279;-31
2023/05/10 03:30:45;;;;;;;2.20;2.00;;;;;;;20.70;56.75;96794.00;4957396;28;20197;-32
2023/05/10 03:33:13;;;;;;;2.37;2.17;;;;;;;20.72;56.82;96792.38;4940988;29;20292;-31
2023/05/10 03:35:39;;;;;;;2.50;2.30;;;;;;;20.71;57.22;96799.16;4964039;28;20320;-31
2023/05/10 03:38:06;;;;;;;2.27;2.07;;;;;;;20.71;57.21;96786.38;4958583;28;20723;-31
2023/05/10 03:40:32;;;;;;;2.10;2.00;;;;;;;20.71;57.06;96799.16;4966190;28;20204;-31
2023/05/10 03:42:59;;;;;;;2.37;2.07;;;;;;;20.71;57.15;96804.25;4960737;28;20228;-31
2023/05/10 03:45:25;;;;;;;2.37;2.17;;;;;;;20.68;57.01;96782.91;4958069;28;20577;-32
2023/05/10 03:47:52;;;;;;;2.00;1.90;;;;;;;20.73;57.16;96809.41;4957542;28;20267;-31
2023/05/10 03:50:19;;;;;;;2.10;1.90;;;;;;;20.72;57.09;96793.22;4956726;28;20212;-31
2023/05/10 03:52:46;;;;;;;1.97;1.87;;;;;;;20.69;57.15;96802.50;4955497;28;20251;-31
2023/05/10 03:55:13;;;;;;;2.00;1.90;;;;;;;20.49;57.19;96773.13;4955785;28;20777;-30
2023/05/10 03:57:39;;;;;;;1.93;1.80;;;;;;;20.73;57.38;96809.41;4957372;28;20202;-31
2023/05/10 04:00:06;;;;;;;2.23;2.03;;;;;;;20.73;57.14;96809.41;4951984;28;20200;-31
2023/05/10 04:02:32;;;;;;;1.90;1.70;;;;;;;20.72;57.21;96817.91;4955829;28;20756;-31
2023/05/10 04:04:59;;;;;;;1.90;1.80;;;;;;;20.72;56.68;96821.28;4958407;28;20445;-31
2023/05/10 04:07:26;;;;;;;1.90;1.80;;;;;;;20.69;57.30;96815.28;4950341;28;20197;-31
2023/05/10 04:09:53;;;;;;;2.00;1.87;;;;;;;20.72;56.76;96826.41;4957681;28;20215;-31
2023/05/10 04:12:19;;;;;;;1.93;1.80;;;;;;;20.74;57.50;96828.97;4953204;28;20228;-31
2023/05/10 04:14:46;;;;;;;1.77;1.67;;;;;;;20.71;57.25;96855.31;4958089;28;20212;-31
2023/05/10 04:17:12;;;;;;;1.80;1.70;;;;;;;20.72;56.89;96834.06;4957028;29;20212;-31
2023/05/10 04:19:39;;;;;;;2.10;2.00;;;;;;;20.73;57.10;96840.03;4958721;28;20704;-31
2023/05/10 04:22:06;;;;;;;1.90;1.80;;;;;;;20.73;57.14;96853.69;4957637;28;20220;-31
2023/05/10 04:24:32;;;;;;;2.00;1.90;;;;;;;20.73;56.95;96843.47;4957786;28;20711;-31
2023/05/10 04:26:59;;;;;;;2.00;1.90;;;;;;;20.73;57.31;96845.16;4955435;28;20239;-32
2023/05/10 04:29:26;;;;;;;2.13;1.93;;;;;;;20.73;57.12;96847.69;4949869;29;20582;-31
2023/05/10 04:31:53;;;;;;;2.40;1.90;;;;;;;20.73;56.92;96852.81;4962722;28;20448;-31
2023/05/10 04:34:20;;;;;;;2.00;1.90;;;;;;;20.73;56.97;96847.69;4958025;28;20303;-32
2023/05/10 04:36:47;;;;;;;2.53;1.97;;;;;;;20.73;57.31;96857.91;4959002;28;20718;-31
2023/05/10 04:39:13;;;;;;;2.00;1.90;;;;;;;20.73;57.10;96852.81;4959085;28;20204;-31
2023/05/10 04:41:40;;;;;;;2.13;1.93;;;;;;;20.73;56.86;96855.34;4961761;28;20220;-32
2023/05/10 04:44:07;;;;;;;1.73;1.63;;;;;;;20.72;57.08;96857.03;4957206;28;20243;-31
2023/05/10 04:46:33;;;;;;;1.90;1.80;;;;;;;20.74;57.05;96854.53;4956888;28;20200;-31
2023/05/10 04:49:00;;;;;;;2.10;2.00;;;;;;;20.74;57.20;96859.63;4962400;28;20224;-31
2023/05/10 04:51:26;;;;;;;2.03;1.80;;;;;;;20.73;57.22;96865.56;4955164;28;20237;-31
2023/05/10 04:53:53;;;;;;;2.07;1.90;;;;;;;20.71;56.97;96860.44;4961546;28;20236;-31
2023/05/10 04:56:32;;;;;;;2.10;1.90;;;;;;;20.73;56.78;96861.34;4957098;28;20203;-31
2023/05/10 04:58:58;;;;;;;2.03;1.87;;;;;;;20.74;57.13;96868.16;4967639;28;20200;-31
2023/05/10 05:01:25;;;;;;;2.20;2.00;;;;;;;20.73;56.96;96869.00;4952568;28;20671;-31
2023/05/10 05:03:52;;;;;;;1.90;1.80;;;;;;;20.75;56.95;96869.88;4956202;28;20202;-31
2023/05/10 05:06:20;;;;;;;2.03;1.90;;;;;;;20.74;57.05;96875.81;4955637;29;20251;-31
2023/05/10 05:08:49;;;;;;;1.80;1.70;;;;;;;20.76;57.21;96880.97;4956656;28;20256;-31
2023/05/10 05:11:16;;;;;;;1.80;1.70;;;;;;;20.75;56.86;96881.81;4955845;28;20201;-31
2023/05/10 05:13:43;;;;;;;1.83;1.73;;;;;;;20.72;57.05;96884.28;4938795;29;20935;-31
2023/05/10 05:16:11;;;;;;;2.00;1.80;;;;;;;20.75;57.16;96890.31;4955299;28;20376;-31
2023/05/10 05:18:37;;;;;;;1.90;1.80;;;;;;;20.76;56.91;96896.28;4953977;28;20284;-31
2023/05/10 05:21:16;;;;;;;1.77;1.67;;;;;;;20.75;56.99;96885.19;4956718;28;20613;-31
2023/05/10 05:23:43;;;;;;;2.17;1.97;;;;;;;20.74;56.90;96898.81;4955745;28;20200;-31
2023/05/10 05:26:10;;;;;;;1.70;1.60;;;;;;;20.76;57.05;96901.38;4955886;28;20283;-31
2023/05/10 05:28:38;;;;;;;1.90;1.80;;;;;;;20.75;56.91;96903.06;4956375;29;20251;-31
2023/05/10 05:31:05;;;;;;;1.90;1.80;;;;;;;20.74;56.94;96905.59;4955354;28;20576;-31
2023/05/10 05:33:32;;;;;;;1.90;1.73;;;;;;;20.75;57.03;96918.38;4961800;28;20847;-31
2023/05/10 05:36:01;;;;;;;1.93;1.67;;;;;;;20.74;57.12;96916.69;4952977;29;20263;-31
2023/05/10 05:38:27;;;;;;;1.60;1.50;;;;;;;20.75;56.76;96920.09;4958026;28;20216;-31
2023/05/10 05:40:54;;;;;;;2.20;2.00;;;;;;;20.72;56.51;96910.66;4956400;29;20200;-31
2023/05/10 05:45:51;;;;;;;1.97;1.80;;;;;;;20.76;56.76;96926.94;4931109;29;20213;-29
2023/05/10 05:48:18;;;;;;;1.80;1.70;;;;;;;20.75;57.18;96931.16;4934075;29;20219;-31
2023/05/10 05:50:45;;;;;;;1.90;1.73;;;;;;;20.77;57.53;96928.63;4938380;29;20668;-29
2023/05/10 05:53:12;;;;;;;1.80;1.70;;;;;;;20.77;56.90;96937.19;4931263;29;20227;-30
2023/05/10 05:55:38;;;;;;;1.70;1.60;;;;;;;20.76;56.48;96929.47;4932519;29;20232;-31
2023/05/10 05:58:05;;;;;;;1.77;1.67;;;;;;;20.77;56.95;96941.41;4933591;29;20239;-30
2023/05/10 06:00:31;;;;;;;1.77;1.67;;;;;;;20.76;56.56;96940.56;4933528;29;20212;-30
2023/05/10 06:02:58;;;;;;;1.60;1.50;;;;;;;20.77;56.78;96952.50;4937676;28;20224;-30
2023/05/10 06:05:24;;;;;;;1.70;1.60;;;;;;;20.77;57.16;96942.28;4934170;29;20237;-30
2023/05/10 06:07:51;;;;;;;2.10;1.90;;;;;;;20.77;56.93;96947.38;4939628;29;20644;-31
2023/05/10 06:10:17;;;;;;;2.00;1.90;;;;;;;20.78;56.97;96951.66;4929218;29;20660;-30
2023/05/10 06:12:44;;;;;;;2.10;1.90;;;;;;;20.78;56.47;96949.09;4938913;29;20225;-29
2023/05/10 06:15:11;;;;;;;1.80;1.70;;;;;;;20.78;56.88;96948.25;4948033;28;20233;-31
2023/05/10 06:17:38;;;;;;;1.73;1.63;;;;;;;20.77;57.18;96952.50;4934171;29;20208;-30
2023/05/10 06:20:06;;;;;;;1.90;1.80;;;;;;;20.78;57.09;96959.31;4936038;28;20212;-30
2023/05/10 06:22:32;;;;;;;2.10;1.87;;;;;;;20.79;57.53;96966.19;4933672;29;20634;-31
2023/05/10 06:24:59;;;;;;;1.83;1.73;;;;;;;20.74;57.43;96956.66;4930792;29;20228;-30
2023/05/10 06:27:26;;;;;;;1.77;1.67;;;;;;;20.77;56.96;96978.03;4931257;29;20209;-31
2023/05/10 06:29:52;;;;;;;1.97;1.87;;;;;;;20.76;56.86;96973.75;4930812;29;20229;-29
2023/05/10 06:32:31;;;;;;;1.83;1.73;;;;;;;20.76;57.23;96978.00;4933330;29;20577;-31
2023/05/10 06:34:57;;;;;;;1.73;1.63;;;;;;;20.76;57.11;96985.66;4931823;29;20320;-29
2023/05/10 06:37:24;;;;;;;1.90;1.70;;;;;;;20.77;57.49;96993.34;4925615;29;20211;-31
2023/05/10 06:39:50;;;;;;;1.97;1.73;;;;;;;20.77;57.42;96993.34;4933515;29;20581;-31
2023/05/10 06:42:17;;;;;;;2.10;2.00;;;;;;;20.76;57.40;96990.75;4933334;29;20201;-31
2023/05/10 06:44:43;;;;;;;1.80;1.70;;;;;;;20.76;57.84;96983.97;4924261;29;20233;-30
2023/05/10 06:47:10;;;;;;;1.80;1.53;;;;;;;20.77;56.50;96995.91;4918902;29;20219;-31
2023/05/10 06:49:37;;;;;;;1.70;1.60;;;;;;;20.75;56.97;96992.44;4930388;29;20299;-30
2023/05/10 06:52:04;;;;;;;2.37;1.90;;;;;;;20.73;56.51;96994.13;4930725;29;20745;-29
2023/05/10 06:54:30;;;;;;;1.80;1.70;;;;;;;20.77;57.18;96993.34;4927952;29;20340;-29
2023/05/10 06:56:57;;;;;;;2.93;1.83;;;;;;;20.76;57.26;96990.75;4932436;29;20252;-30
2023/05/10 06:59:24;;;;;;;1.80;1.70;;;;;;;20.76;57.01;96990.75;4931102;29;20205;-30
2023/05/10 07:01:50;;;;;;;1.80;1.70;;;;;;;20.75;56.66;96989.88;4932619;29;20212;-30
2023/05/10 07:04:17;;;;;;;1.80;1.70;;;;;;;20.76;57.51;97001.84;4927403;29;20318;-30
2023/05/10 07:06:46;;;;;;;1.60;1.50;;;;;;;20.76;56.69;97004.41;4930711;29;20694;-29
2023/05/10 07:09:13;;;;;;;1.57;1.47;;;;;;;20.76;56.81;96998.44;4933239;29;20660;-30
2023/05/10 07:11:39;;;;;;;1.90;1.60;;;;;;;20.76;56.99;96993.31;4934591;29;20201;-29
2023/05/10 07:14:06;;;;;;;1.70;1.60;;;;;;;20.77;56.76;97001.00;4932891;29;20259;-29
2023/05/10 07:16:32;;;;;;;1.90;1.80;;;;;;;20.77;57.36;97010.34;4933405;29;20628;-28
2023/05/10 07:18:59;;;;;;;1.70;1.60;;;;;;;20.77;57.16;96998.47;4933016;29;20291;-30
2023/05/10 07:21:28;;;;;;;1.70;1.60;;;;;;;20.77;56.89;97008.69;4931025;29;20205;-30
2023/05/10 07:23:55;;;;;;;1.60;1.50;;;;;;;20.77;57.13;97011.22;4923709;29;20232;-29
2023/05/10 07:26:21;;;;;;;1.77;1.67;;;;;;;20.77;56.79;97024.00;4928765;29;20287;-29
2023/05/10 07:28:48;;;;;;;1.50;1.40;;;;;;;20.78;56.98;97023.16;4932373;29;20204;-30
2023/05/10 07:31:14;;;;;;;1.77;1.67;;;;;;;20.78;56.68;97012.94;4926593;29;20209;-30
2023/05/10 07:33:41;;;;;;;1.60;1.50;;;;;;;20.78;57.14;97022.31;4926841;29;20229;-30
2023/05/10 07:36:07;;;;;;;1.70;1.50;;;;;;;20.77;56.87;97018.88;4929340;29;20235;-30
2023/05/10 07:38:34;;;;;;;1.80;1.70;;;;;;;20.77;57.05;97016.34;4928413;29;20280;-29
2023/05/10 07:41:01;;;;;;;1.93;1.73;;;;;;;20.78;57.29;97017.22;4922006;29;20594;-30
2023/05/10 07:43:27;;;;;;;1.80;1.70;;;;;;;20.77;56.58;97011.22;4932837;29;20228;-29
2023/05/10 07:45:54;;;;;;;1.60;1.50;;;;;;;20.77;56.96;97020.56;4933000;29;20244;-30
2023/05/10 07:48:21;;;;;;;1.77;1.67;;;;;;;20.77;56.98;97021.44;4930212;29;20295;-31
2023/05/10 07:50:48;;;;;;;1.60;1.50;;;;;;;20.78;56.71;97022.31;4929765;29;20624;-30
2023/05/10 07:53:14;;;;;;;1.60;1.50;;;;;;;20.77;56.93;97016.34;4933079;29;20316;-30
2023/05/10 07:55:41;;;;;;;1.90;1.70;;;;;;;20.77;56.87;97018.00;4930630;29;20217;-31
2023/05/10 07:58:08;;;;;;;1.63;1.53;;;;;;;20.75;56.68;97014.59;4926738;29;20240;-31
2023/05/10 08:00:34;;;;;;;1.70;1.60;;;;;;;20.75;57.21;97015.44;4929515;29;20206;-29
2023/05/10 08:03:01;;;;;;;1.70;1.60;;;;;;;20.77;56.76;97026.56;4926363;29;20200;-30
2023/05/10 08:05:27;;;;;;;1.50;1.40;;;;;;;20.78;57.03;97022.31;4931571;29;20201;-31
2023/05/10 08:07:54;;;;;;;1.60;1.50;;;;;;;20.77;56.87;97021.44;4930847;29;20233;-30
2023/05/10 08:10:21;;;;;;;1.70;1.60;;;;;;;20.76;57.43;97019.72;4930300;29;20201;-30
2023/05/10 08:12:47;;;;;;;1.73;1.63;;;;;;;20.76;57.04;97017.19;4931285;29;20205;-31
2023/05/10 08:15:14;;;;;;;1.40;1.30;;;;;;;20.77;57.12;97026.56;4931898;29;20229;-30
2023/05/10 08:17:42;;;;;;;1.70;1.60;;;;;;;20.76;57.09;97016.31;4930244;29;20209;-30
2023/05/10 08:20:09;;;;;;;1.60;1.50;;;;;;;20.78;56.94;97022.31;4929625;29;20216;-30
2023/05/10 08:22:36;;;;;;;1.93;1.83;;;;;;;20.77;56.66;97026.56;4929351;29;20690;-30
2023/05/10 08:25:02;;;;;;;1.70;1.60;;;;;;;20.77;56.90;97031.66;4932363;29;20228;-30
2023/05/10 08:27:29;;;;;;;1.50;1.40;;;;;;;20.76;56.54;97018.84;4931717;29;20216;-30
2023/05/10 08:29:55;;;;;;;1.80;1.60;;;;;;;20.77;56.63;97031.66;4930353;29;20208;-30
2023/05/10 08:32:22;;;;;;;1.60;1.50;;;;;;;20.78;57.22;97027.44;4934014;29;20236;-30
2023/05/10 08:34:49;;;;;;;1.70;1.60;;;;;;;20.78;57.07;97022.31;4930668;29;20224;-29
2023/05/10 08:37:16;;;;;;;1.67;1.57;;;;;;;20.78;56.90;97033.38;4931664;29;20228;-29
2023/05/10 08:39:42;;;;;;;1.57;1.47;;;;;;;20.79;56.97;97026.59;4930539;29;20256;-30
2023/05/10 08:42:09;;;;;;;1.97;1.50;;;;;;;20.74;56.85;97028.16;4932731;29;20221;-31
2023/05/10 08:44:36;;;;;;;1.40;1.30;;;;;;;20.78;56.98;97033.38;4926374;29;20288;-29
2023/05/10 08:47:05;;;;;;;1.53;1.40;;;;;;;20.80;56.89;97038.53;4929169;29;20292;-30
2023/05/10 08:49:32;;;;;;;1.60;1.50;;;;;;;20.78;56.90;97035.94;4926802;29;20490;-30
2023/05/10 08:52:01;;;;;;;1.60;1.50;;;;;;;20.78;57.00;97035.94;4933454;29;20694;-31
2023/05/10 08:54:28;;;;;;;1.60;1.50;;;;;;;20.73;56.86;97034.97;4934649;29;20330;-30
2023/05/10 08:56:54;;;;;;;1.30;1.30;;;;;;;20.73;56.45;97034.97;4922511;29;20233;-30
2023/05/10 08:59:21;;;;;;;1.50;1.40;;;;;;;20.77;56.89;97048.66;4906619;29;20214;-30
2023/05/10 09:01:49;;;;;;;1.50;1.40;;;;;;;20.77;56.61;97049.53;4926918;29;20558;-31
2023/05/10 09:04:16;;;;;;;1.70;1.60;;;;;;;20.78;56.97;97061.47;4937889;29;20588;-30
2023/05/10 09:06:42;;;;;;;1.60;1.50;;;;;;;20.76;56.67;97044.38;4934176;29;20256;-30
2023/05/10 09:09:09;;;;;;;1.50;1.40;;;;;;;20.72;56.62;97035.78;4927378;29;20208;-30
2023/05/10 09:11:35;;;;;;;1.60;1.50;;;;;;;20.76;56.81;97049.50;4936091;29;20216;-30
2023/05/10 09:14:02;;;;;;;2.50;1.50;;;;;;;20.75;56.89;97052.88;4932668;29;20276;-30
2023/05/10 09:16:29;;;;;;;1.60;1.50;;;;;;;20.77;56.58;97049.53;4931595;29;20221;-31
2023/05/10 09:18:55;;;;;;;1.27;1.27;;;;;;;20.78;56.97;97050.41;4930592;29;20216;-30
2023/05/10 09:21:22;;;;;;;1.60;1.50;;;;;;;20.76;56.84;97047.81;4934940;28;20649;-29
2023/05/10 09:23:49;;;;;;;1.60;1.50;;;;;;;20.78;56.87;97055.53;4931980;29;20252;-30
2023/05/10 09:26:17;;;;;;;1.60;1.50;;;;;;;20.77;56.81;97046.97;4933487;29;20201;-31
2023/05/10 09:28:54;;;;;;;1.57;1.47;;;;;;;20.76;56.82;97044.38;4931630;29;20216;-30
2023/05/10 09:31:21;;;;;;;1.70;1.60;;;;;;;20.78;56.86;97048.69;4932146;29;20217;-31
2023/05/10 09:33:48;;;;;;;1.37;1.33;;;;;;;20.77;56.92;97046.97;4933206;29;20287;-30
2023/05/10 09:36:15;;;;;;;1.50;1.40;;;;;;;20.77;57.10;97046.97;4928298;29;20252;-31
2023/05/10 09:38:48;;;;;;;1.50;1.40;;;;;;;20.78;56.85;97053.81;4919887;29;20296;-30
2023/05/10 09:41:18;;;;;;;1.47;1.37;;;;;;;20.75;56.82;97042.66;4931380;29;20320;-30
2023/05/10 09:43:45;;;;;;;1.57;1.47;;;;;;;20.78;56.90;97046.16;4935912;29;20773;-30
2023/05/10 09:46:12;;;;;;;1.30;1.30;;;;;;;20.55;56.88;97010.66;4936060;29;20209;-30
2023/05/10 09:48:41;;;;;;;1.73;1.63;;;;;;;20.79;56.91;97047.03;4928232;29;20210;-29
2023/05/10 09:51:08;;;;;;;1.67;1.57;;;;;;;20.78;56.52;97043.59;4925472;29;20296;-30
2023/05/10 09:53:34;;;;;;;1.50;1.40;;;;;;;20.78;57.32;97048.69;4928227;29;20742;-30
2023/05/10 09:56:01;;;;;;;1.33;1.30;;;;;;;20.78;56.94;97045.31;4930601;29;20710;-30
2023/05/10 09:58:28;;;;;;;1.27;1.23;;;;;;;20.78;57.05;97042.75;4931026;29;20236;-31
2023/05/10 10:00:55;;;;;;;1.50;1.40;;;;;;;20.75;57.37;97047.78;4909759;29;20225;-30
2023/05/10 10:03:22;;;;;;;1.40;1.30;;;;;;;20.78;57.40;97047.84;4908590;29;20727;-29
2023/05/10 10:05:49;;;;;;;1.40;1.30;;;;;;;20.76;56.98;97029.06;4930746;29;20221;-30
2023/05/10 10:08:17;;;;;;;1.47;1.37;;;;;;;20.78;56.89;97035.09;4928810;29;20239;-30
2023/05/10 10:10:46;;;;;;;1.47;1.37;;;;;;;20.78;56.85;97033.38;4930909;29;20287;-30
2023/05/10 10:13:12;;;;;;;1.27;1.20;;;;;;;20.77;56.70;97031.66;4931321;29;20305;-29
2023/05/10 10:15:39;;;;;;;2.20;1.30;;;;;;;20.74;57.11;97017.94;4928504;29;20291;-30
2023/05/10 10:18:06;;;;;;;1.33;1.30;;;;;;;20.76;57.14;97026.50;4927781;29;20675;-30
2023/05/10 10:20:33;;;;;;;1.50;1.40;;;;;;;20.79;56.78;97021.47;4927710;29;20231;-30
2023/05/10 10:22:59;;;;;;;1.47;1.37;;;;;;;20.79;57.00;97026.59;4930239;29;20261;-29
2023/05/10 10:25:26;;;;;;;1.47;1.37;;;;;;;20.73;56.83;97011.13;4931404;29;20215;-30
2023/05/10 10:27:52;;;;;;;1.50;1.40;;;;;;;20.78;56.81;97020.59;4915184;29;20232;-29
2023/05/10 10:30:48;;;;;;;1.53;1.43;;;;;;;20.79;56.93;97019.81;4934485;29;20260;-31
2023/05/10 10:33:33;;;;;;;1.40;1.30;;;;;;;20.79;56.89;97026.59;4931865;29;20304;-30
2023/05/10 10:36:00;;;;;;;1.47;1.37;;;;;;;20.79;56.91;97024.03;4932976;29;20233;-30
2023/05/10 10:39:00;;;;;;;1.57;1.47;;;;;;;20.79;56.81;97030.03;4932907;29;20244;-31
2023/05/10 10:41:32;;;;;;;1.37;1.30;;;;;;;20.78;56.93;97023.16;4919885;29;20209;-30
2023/05/10 10:44:34;;;;;;;1.47;1.37;;;;;;;20.79;56.98;97024.91;4933302;29;20237;-29
2023/05/10 10:47:24;;;;;;;1.47;1.37;;;;;;;20.79;56.81;97021.47;4932203;29;20228;-30
2023/05/10 10:49:51;;;;;;;1.50;1.40;;;;;;;20.79;56.96;97029.16;4934208;29;20571;-29
2023/05/10 10:52:29;;;;;;;1.60;1.50;;;;;;;20.79;56.94;97024.03;4933583;29;20220;-30
2023/05/10 10:55:00;;;;;;;1.63;1.40;;;;;;;20.79;57.03;97029.16;4925626;29;20668;-29
2023/05/10 10:57:26;;;;;;;1.40;1.30;;;;;;;20.78;56.76;97023.16;4928352;29;20256;-30
2023/05/10 11:00:18;;;;;;;1.30;1.30;;;;;;;20.78;56.70;97023.16;4924940;29;20690;-30
2023/05/10 11:02:45;;;;;;;1.50;1.40;;;;;;;20.79;57.23;97035.13;4932575;29;20201;-30
2023/05/10 11:05:28;;;;;;;1.20;1.20;;;;;;;20.79;56.94;97026.59;4927435;29;20265;-29
2023/05/10 11:07:56;;;;;;;1.10;1.10;;;;;;;20.75;56.83;97014.59;4929983;29;20198;-30
2023/05/10 11:10:23;;;;;;;1.43;1.33;;;;;;;20.79;56.70;97024.03;4925924;29;20205;-31
2023/05/10 11:13:15;;;;;;;1.40;1.30;;;;;;;20.79;56.97;97022.34;4933427;29;20205;-29
2023/05/10 11:15:48;;;;;;;1.50;1.40;;;;;;;20.78;56.89;97020.59;4927992;29;20205;-31
2023/05/10 11:18:19;;;;;;;2.57;1.30;;;;;;;20.77;56.96;97013.78;4930799;29;20213;-31
2023/05/10 11:20:59;;;;;;;1.27;1.27;;;;;;;20.77;56.97;97021.44;4932976;29;20632;-30
2023/05/10 11:23:47;;;;;;;1.50;1.40;;;;;;;20.78;56.86;97018.06;4930158;29;20617;-30
2023/05/10 11:26:13;;;;;;;1.40;1.30;;;;;;;20.78;56.86;97027.44;4932285;29;20215;-31
2023/05/10 11:28:47;;;;;;;1.20;1.20;;;;;;;20.77;57.04;97028.22;4932377;29;20216;-30
2023/05/10 11:31:17;;;;;;;1.53;1.30;;;;;;;20.78;56.96;97027.44;4933230;29;20295;-30
2023/05/10 11:33:52;;;;;;;1.40;1.30;;;;;;;20.59;56.95;96990.34;4927823;29;20683;-30
2023/05/10 11:36:29;;;;;;;1.30;1.30;;;;;;;20.77;56.83;97018.00;4927310;29;20766;-31
2023/05/10 11:38:56;;;;;;;1.20;1.20;;;;;;;20.78;56.81;97035.94;4923064;29;20200;-31
2023/05/10 11:41:22;;;;;;;1.20;1.20;;;;;;;20.67;56.99;97014.41;4931494;29;20694;-30
2023/05/10 11:43:50;;;;;;;1.50;1.40;;;;;;;20.69;56.98;97022.09;4929103;29;20312;-30